Time,TemperatureF,DewpointF,PressureIn,WindDirection,WindDirectionDegrees,WindSpeedMPH,WindSpeedGustMPH,Humidity,HourlyPrecipIn,Conditions,Clouds,dailyrainin,SolarRadiationWatts/m^2,SoftwareType,DateUTC
2013-05-23 00:00:00,80.4,21.1,29.56,ESE,114,0.0,5.0,11,0.00,,,0.00,0,WeatherTracker,2013-05-23 07:00:00,
2013-05-23 00:05:00,80.1,22.9,29.56,ESE,114,0.0,1.0,12,0.00,,,0.00,0,WeatherTracker,2013-05-23 07:05:00,
2013-05-23 00:11:00,79.8,24.6,29.56,ESE,113,0.0,2.0,13,0.00,,,0.00,0,WeatherTracker,2013-05-23 07:11:00,
2013-05-23 00:16:00,79.7,24.5,29.56,ESE,113,0.0,2.0,13,0.00,,,0.00,0,WeatherTracker,2013-05-23 07:16:00,
2013-05-23 00:21:00,79.4,24.3,29.57,ESE,113,0.0,2.0,13,0.00,,,0.00,0,WeatherTracker,2013-05-23 07:21:00,
2013-05-23 00:26:00,79.2,24.1,29.57,ESE,113,0.0,2.0,13,0.00,,,0.00,0,WeatherTracker,2013-05-23 07:26:00,
2013-05-23 00:31:00,78.9,23.9,29.57,ESE,113,0.0,0.0,13,0.00,,,0.00,0,WeatherTracker,2013-05-23 07:31:00,
2013-05-23 00:36:00,78.7,23.7,29.57,ESE,113,0.0,4.0,13,0.00,,,0.00,0,WeatherTracker,2013-05-23 07:36:00,
2013-05-23 00:41:00,78.6,25.4,29.56,ESE,113,0.0,5.0,14,0.00,,,0.00,0,WeatherTracker,2013-05-23 07:41:00,
2013-05-23 00:46:00,78.4,26.9,29.56,ESE,113,0.0,5.0,15,0.00,,,0.00,0,WeatherTracker,2013-05-23 07:46:00,
2013-05-23 00:51:00,78.2,26.8,29.57,ESE,113,0.0,4.0,15,0.00,,,0.00,0,WeatherTracker,2013-05-23 07:51:00,
2013-05-23 00:56:00,78.0,28.2,29.57,ESE,113,0.0,1.0,16,0.00,,,0.00,0,WeatherTracker,2013-05-23 07:56:00,
2013-05-23 01:01:00,77.6,27.8,29.57,ESE,113,0.0,1.0,16,0.00,,,0.00,0,WeatherTracker,2013-05-23 08:01:00,
2013-05-23 01:06:00,76.9,28.8,29.58,ESE,113,0.0,0.0,17,0.00,,,0.00,0,WeatherTracker,2013-05-23 08:06:00,
2013-05-23 01:11:00,76.5,28.4,29.57,ESE,113,0.0,0.0,17,0.00,,,0.00,0,WeatherTracker,2013-05-23 08:11:00,
2013-05-23 01:16:00,76.0,29.4,29.58,ESE,113,0.0,0.0,18,0.00,,,0.00,0,WeatherTracker,2013-05-23 08:16:00,
2013-05-23 01:21:00,75.6,29.1,29.57,ESE,113,0.0,0.0,18,0.00,,,0.00,0,WeatherTracker,2013-05-23 08:21:00,
2013-05-23 01:26:00,75.4,28.9,29.57,ESE,113,0.0,0.0,18,0.00,,,0.00,0,WeatherTracker,2013-05-23 08:26:00,
2013-05-23 01:31:00,75.3,30.2,29.57,ESE,113,0.0,0.0,19,0.00,,,0.00,0,WeatherTracker,2013-05-23 08:31:00,
2013-05-23 01:36:00,75.1,28.7,29.57,ESE,113,0.0,1.0,18,0.00,,,0.00,0,WeatherTracker,2013-05-23 08:36:00,
2013-05-23 01:41:00,75.0,28.6,29.57,ESE,113,0.0,1.0,18,0.00,,,0.00,0,WeatherTracker,2013-05-23 08:41:00,
2013-05-23 01:46:00,75.1,28.7,29.57,ESE,113,0.0,1.0,18,0.00,,,0.00,0,WeatherTracker,2013-05-23 08:46:00,
2013-05-23 01:51:00,75.1,28.7,29.57,ESE,113,0.0,1.0,18,0.00,,,0.00,0,WeatherTracker,2013-05-23 08:51:00,
2013-05-23 01:57:00,74.9,29.9,29.57,ESE,113,0.0,1.0,19,0.00,,,0.00,0,WeatherTracker,2013-05-23 08:57:00,
2013-05-23 02:02:00,74.8,29.8,29.57,ESE,113,0.0,0.0,19,0.00,,,0.00,0,WeatherTracker,2013-05-23 09:02:00,
2013-05-23 02:07:00,74.4,29.4,29.58,ESE,113,0.0,0.0,19,0.00,,,0.00,0,WeatherTracker,2013-05-23 09:07:00,
2013-05-23 02:12:00,74.1,30.5,29.58,ESE,113,0.0,0.0,20,0.00,,,0.00,0,WeatherTracker,2013-05-23 09:12:00,
2013-05-23 02:17:00,74.0,30.4,29.58,ESE,113,0.0,0.0,20,0.00,,,0.00,0,WeatherTracker,2013-05-23 09:17:00,
2013-05-23 02:22:00,74.1,31.7,29.58,ESE,113,0.0,1.0,21,0.00,,,0.00,0,WeatherTracker,2013-05-23 09:22:00,
2013-05-23 02:27:00,74.0,31.6,29.59,ESE,113,0.0,1.0,21,0.00,,,0.00,0,WeatherTracker,2013-05-23 09:27:00,
2013-05-23 02:32:00,73.8,31.4,29.59,ESE,113,0.0,1.0,21,0.00,,,0.00,0,WeatherTracker,2013-05-23 09:32:00,
2013-05-23 02:41:00,73.2,30.9,29.59,ESE,113,0.0,0.0,21,0.00,,,0.00,0,WeatherTracker,2013-05-23 09:41:00,
2013-05-23 02:46:00,72.9,31.8,29.59,ESE,113,0.0,0.0,22,0.00,,,0.00,0,WeatherTracker,2013-05-23 09:46:00,
2013-05-23 02:51:00,72.6,31.6,29.59,ESE,113,0.0,0.0,22,0.00,,,0.00,0,WeatherTracker,2013-05-23 09:51:00,
2013-05-23 02:56:00,72.7,31.7,29.59,ESE,113,0.0,1.0,22,0.00,,,0.00,0,WeatherTracker,2013-05-23 09:56:00,
2013-05-23 03:01:00,72.9,30.7,29.59,ESE,113,0.0,1.0,21,0.00,,,0.00,0,WeatherTracker,2013-05-23 10:01:00,
2013-05-23 03:06:00,73.1,30.8,29.59,ESE,113,0.0,1.0,21,0.00,,,0.00,0,WeatherTracker,2013-05-23 10:06:00,
2013-05-23 03:12:00,73.2,30.9,29.59,ESE,113,0.0,0.0,21,0.00,,,0.00,0,WeatherTracker,2013-05-23 10:12:00,
2013-05-23 03:17:00,73.0,30.8,29.59,ESE,113,0.0,0.0,21,0.00,,,0.00,0,WeatherTracker,2013-05-23 10:17:00,
2013-05-23 03:22:00,72.8,30.6,29.59,ESE,113,0.0,1.0,21,0.00,,,0.00,0,WeatherTracker,2013-05-23 10:22:00,
2013-05-23 03:27:00,72.7,31.7,29.59,ESE,113,0.0,1.0,22,0.00,,,0.00,0,WeatherTracker,2013-05-23 10:27:00,
2013-05-23 03:32:00,72.6,32.7,29.59,ESE,113,0.0,0.0,23,0.00,,,0.00,0,WeatherTracker,2013-05-23 10:32:00,
2013-05-23 03:37:00,72.4,32.5,29.59,ESE,113,0.0,0.0,23,0.00,,,0.00,0,WeatherTracker,2013-05-23 10:37:00,
2013-05-23 03:42:00,72.3,32.4,29.59,ESE,113,0.0,0.0,23,0.00,,,0.00,0,WeatherTracker,2013-05-23 10:42:00,
2013-05-23 03:47:00,72.2,33.4,29.59,ESE,113,0.0,1.0,24,0.00,,,0.00,0,WeatherTracker,2013-05-23 10:47:00,
2013-05-23 03:52:00,72.1,33.3,29.59,ESE,113,0.0,1.0,24,0.00,,,0.00,0,WeatherTracker,2013-05-23 10:52:00,
2013-05-23 03:57:00,71.9,34.2,29.59,ESE,113,0.0,0.0,25,0.00,,,0.00,0,WeatherTracker,2013-05-23 10:57:00,
2013-05-23 04:02:00,71.7,33.0,29.59,ESE,113,0.0,0.0,24,0.00,,,0.00,0,WeatherTracker,2013-05-23 11:02:00,
2013-05-23 04:07:00,71.6,33.9,29.59,ESE,113,0.0,0.0,25,0.00,,,0.00,0,WeatherTracker,2013-05-23 11:07:00,
2013-05-23 04:12:00,71.3,34.6,29.59,ESE,113,0.0,0.0,26,0.00,,,0.00,0,WeatherTracker,2013-05-23 11:12:00,
2013-05-23 04:17:00,70.8,34.2,29.59,ESE,113,0.0,0.0,26,0.00,,,0.00,0,WeatherTracker,2013-05-23 11:17:00,
2013-05-23 04:22:00,70.3,34.7,29.59,ESE,113,0.0,0.0,27,0.00,,,0.00,0,WeatherTracker,2013-05-23 11:22:00,
2013-05-23 04:27:00,69.9,34.4,29.59,ESE,113,0.0,0.0,27,0.00,,,0.00,0,WeatherTracker,2013-05-23 11:27:00,
2013-05-23 04:32:00,69.7,34.2,29.59,ESE,113,0.0,0.0,27,0.00,,,0.00,0,WeatherTracker,2013-05-23 11:32:00,
2013-05-23 04:37:00,69.5,34.0,29.59,ESE,113,0.0,0.0,27,0.00,,,0.00,0,WeatherTracker,2013-05-23 11:37:00,
2013-05-23 04:43:00,69.6,34.1,29.59,ESE,113,0.0,0.0,27,0.00,,,0.00,0,WeatherTracker,2013-05-23 11:43:00,
2013-05-23 04:48:00,70.0,34.5,29.59,ESE,113,0.0,0.0,27,0.00,,,0.00,0,WeatherTracker,2013-05-23 11:48:00,
2013-05-23 04:53:00,70.3,34.7,29.60,ESE,113,0.0,1.0,27,0.00,,,0.00,0,WeatherTracker,2013-05-23 11:53:00,
2013-05-23 04:58:00,70.2,35.6,29.60,ESE,113,0.0,1.0,28,0.00,,,0.00,0,WeatherTracker,2013-05-23 11:58:00,
2013-05-23 05:03:00,69.9,35.3,29.60,ESE,113,0.0,1.0,28,0.00,,,0.00,0,WeatherTracker,2013-05-23 12:03:00,
2013-05-23 05:08:00,69.5,35.0,29.60,ESE,113,0.0,0.0,28,0.00,,,0.00,0,WeatherTracker,2013-05-23 12:08:00,
2013-05-23 05:13:00,69.2,34.7,29.60,ESE,113,0.0,0.0,28,0.00,,,0.00,0,WeatherTracker,2013-05-23 12:13:00,
2013-05-23 05:18:00,69.1,33.7,29.60,ESE,113,0.0,0.0,27,0.00,,,0.00,0,WeatherTracker,2013-05-23 12:18:00,
2013-05-23 05:23:00,69.0,35.4,29.61,ESE,113,0.0,0.0,29,0.00,,,0.00,0,WeatherTracker,2013-05-23 12:23:00,
2013-05-23 05:28:00,68.8,36.1,29.61,ESE,113,0.0,0.0,30,0.00,,,0.00,5,WeatherTracker,2013-05-23 12:28:00,
2013-05-23 05:33:00,68.5,35.8,29.61,ESE,113,0.0,0.0,30,0.00,,,0.00,9,WeatherTracker,2013-05-23 12:33:00,
2013-05-23 05:38:00,68.3,34.8,29.61,ESE,113,0.0,0.0,29,0.00,,,0.00,12,WeatherTracker,2013-05-23 12:38:00,
2013-05-23 05:43:00,68.3,35.7,29.61,ESE,113,0.0,0.0,30,0.00,,,0.00,16,WeatherTracker,2013-05-23 12:43:00,
2013-05-23 05:48:00,68.4,35.7,29.61,ESE,113,0.0,0.0,30,0.00,,,0.00,23,WeatherTracker,2013-05-23 12:48:00,
2013-05-23 05:53:00,68.6,35.9,29.61,ESE,113,0.0,1.0,30,0.00,,,0.00,32,WeatherTracker,2013-05-23 12:53:00,
2013-05-23 05:58:00,69.0,37.1,29.62,ESE,113,0.0,1.0,31,0.00,,,0.00,42,WeatherTracker,2013-05-23 12:58:00,
2013-05-23 06:03:00,69.3,37.4,29.62,ESE,113,0.0,0.0,31,0.00,,,0.00,54,WeatherTracker,2013-05-23 13:03:00,
2013-05-23 06:08:00,70.3,37.4,29.62,ESE,113,0.0,1.0,30,0.00,,,0.00,63,WeatherTracker,2013-05-23 13:08:00,
2013-05-23 06:13:00,71.1,37.2,29.62,ESE,113,0.0,2.0,29,0.00,,,0.00,79,WeatherTracker,2013-05-23 13:13:00,
2013-05-23 06:18:00,71.6,37.6,29.62,ESE,111,0.0,4.0,29,0.00,,,0.00,95,WeatherTracker,2013-05-23 13:18:00,
2013-05-23 06:23:00,72.1,38.1,29.62,ESE,111,0.0,4.0,29,0.00,,,0.00,113,WeatherTracker,2013-05-23 13:23:00,
2013-05-23 06:28:00,72.5,37.5,29.62,ESE,111,0.0,1.0,28,0.00,,,0.00,130,WeatherTracker,2013-05-23 13:28:00,
2013-05-23 06:33:00,72.9,37.9,29.63,ESE,111,1.0,4.0,28,0.00,,,0.00,148,WeatherTracker,2013-05-23 13:33:00,
2013-05-23 06:39:00,73.3,38.2,29.63,ESE,111,0.0,4.0,28,0.00,,,0.00,167,WeatherTracker,2013-05-23 13:39:00,
2013-05-23 06:44:00,73.7,38.6,29.63,ESE,111,0.0,4.0,28,0.00,,,0.00,185,WeatherTracker,2013-05-23 13:44:00,
2013-05-23 06:49:00,74.5,38.3,29.63,ESE,111,0.0,0.0,27,0.00,,,0.00,204,WeatherTracker,2013-05-23 13:49:00,
2013-05-23 06:54:00,75.0,37.8,29.63,ESE,111,0.0,0.0,26,0.00,,,0.00,220,WeatherTracker,2013-05-23 13:54:00,
2013-05-23 06:59:00,75.4,37.1,29.64,ESE,111,0.0,1.0,25,0.00,,,0.00,237,WeatherTracker,2013-05-23 13:59:00,
2013-05-23 07:04:00,75.8,38.5,29.64,ESE,111,0.0,1.0,26,0.00,,,0.00,253,WeatherTracker,2013-05-23 14:04:00,
2013-05-23 07:09:00,76.4,38.0,29.64,ESE,111,0.0,1.0,25,0.00,,,0.00,267,WeatherTracker,2013-05-23 14:09:00,
2013-05-23 07:14:00,76.8,38.3,29.64,South,190,0.0,3.0,25,0.00,,,0.00,281,WeatherTracker,2013-05-23 14:14:00,
2013-05-23 07:19:00,77.4,38.8,29.64,South,190,0.0,3.0,25,0.00,,,0.00,299,WeatherTracker,2013-05-23 14:19:00,
2013-05-23 07:24:00,78.0,38.3,29.64,South,184,0.0,1.0,24,0.00,,,0.00,316,WeatherTracker,2013-05-23 14:24:00,
2013-05-23 07:29:00,78.5,38.7,29.64,South,184,0.0,1.0,24,0.00,,,0.00,332,WeatherTracker,2013-05-23 14:29:00,
2013-05-23 07:34:00,78.7,38.9,29.65,South,184,0.0,1.0,24,0.00,,,0.00,350,WeatherTracker,2013-05-23 14:34:00,
2013-05-23 07:39:00,79.1,38.1,29.65,South,184,0.0,2.0,23,0.00,,,0.00,366,WeatherTracker,2013-05-23 14:39:00,
2013-05-23 07:44:00,79.7,37.5,29.65,South,184,0.0,2.0,22,0.00,,,0.00,383,WeatherTracker,2013-05-23 14:44:00,
2013-05-23 07:49:00,80.1,37.8,29.65,South,184,0.0,1.0,22,0.00,,,0.00,399,WeatherTracker,2013-05-23 14:49:00,
2013-05-23 07:54:00,80.8,37.2,29.65,South,184,0.0,1.0,21,0.00,,,0.00,415,WeatherTracker,2013-05-23 14:54:00,
2013-05-23 07:59:00,81.2,37.5,29.65,South,184,0.0,1.0,21,0.00,,,0.00,431,WeatherTracker,2013-05-23 14:59:00,
2013-05-23 08:04:00,81.6,37.9,29.66,South,184,0.0,1.0,21,0.00,,,0.00,445,WeatherTracker,2013-05-23 15:04:00,
2013-05-23 08:10:00,82.1,38.3,29.66,South,184,0.0,1.0,21,0.00,,,0.00,461,WeatherTracker,2013-05-23 15:10:00,
2013-05-23 08:15:00,82.9,36.4,29.66,SE,130,0.0,2.0,19,0.00,,,0.00,478,WeatherTracker,2013-05-23 15:15:00,
2013-05-23 08:20:00,83.5,36.9,29.66,SE,132,0.0,2.0,19,0.00,,,0.00,494,WeatherTracker,2013-05-23 15:20:00,
2013-05-23 08:25:00,84.0,35.9,29.66,SE,132,0.0,2.0,18,0.00,,,0.00,512,WeatherTracker,2013-05-23 15:25:00,
2013-05-23 08:30:00,84.3,37.5,29.66,SE,132,0.0,2.0,19,0.00,,,0.00,527,WeatherTracker,2013-05-23 15:30:00,
2013-05-23 08:35:00,84.6,37.8,29.66,SE,128,0.0,4.0,19,0.00,,,0.00,541,WeatherTracker,2013-05-23 15:35:00,
2013-05-23 08:40:00,84.7,36.5,29.66,SW,232,2.0,4.0,18,0.00,,,0.00,557,WeatherTracker,2013-05-23 15:40:00,
2013-05-23 08:45:00,84.7,36.5,29.66,ESE,121,0.0,4.0,18,0.00,,,0.00,573,WeatherTracker,2013-05-23 15:45:00,
2013-05-23 08:50:00,85.2,36.9,29.66,ESE,121,0.0,4.0,18,0.00,,,0.00,587,WeatherTracker,2013-05-23 15:50:00,
2013-05-23 08:55:00,86.0,37.5,29.66,ENE,72,0.0,3.0,18,0.00,,,0.00,603,WeatherTracker,2013-05-23 15:55:00,
2013-05-23 09:00:00,86.5,37.9,29.66,ENE,75,1.0,3.0,18,0.00,,,0.00,617,WeatherTracker,2013-05-23 16:00:00,
2013-05-23 09:05:00,86.8,36.7,29.66,South,169,4.0,5.0,17,0.00,,,0.00,631,WeatherTracker,2013-05-23 16:05:00,
2013-05-23 09:10:00,86.6,38.0,29.66,SE,136,0.0,6.0,18,0.00,,,0.00,645,WeatherTracker,2013-05-23 16:10:00,
2013-05-23 09:15:00,86.4,37.9,29.66,SSE,156,0.0,8.0,18,0.00,,,0.00,654,WeatherTracker,2013-05-23 16:15:00,
2013-05-23 09:20:00,86.7,39.5,29.66,East,84,0.0,8.0,19,0.00,,,0.00,671,WeatherTracker,2013-05-23 16:20:00,
2013-05-23 09:25:00,86.9,38.3,29.66,East,88,2.0,5.0,18,0.00,,,0.00,687,WeatherTracker,2013-05-23 16:25:00,
2013-05-23 09:31:00,87.1,38.4,29.66,ESE,107,2.0,5.0,18,0.00,,,0.00,700,WeatherTracker,2013-05-23 16:31:00,
2013-05-23 09:36:00,87.5,37.3,29.66,SW,231,0.0,4.0,17,0.00,,,0.00,712,WeatherTracker,2013-05-23 16:36:00,
2013-05-23 09:41:00,87.9,37.6,29.66,ESE,106,0.0,5.0,17,0.00,,,0.00,728,WeatherTracker,2013-05-23 16:41:00,
2013-05-23 09:46:00,88.6,36.6,29.66,ESE,107,1.0,7.0,16,0.00,,,0.00,740,WeatherTracker,2013-05-23 16:46:00,
2013-05-23 09:51:00,88.8,36.8,29.66,South,180,3.0,11.0,16,0.00,,,0.00,756,WeatherTracker,2013-05-23 16:51:00,
2013-05-23 09:56:00,89.3,38.7,29.66,East,98,1.0,11.0,17,0.00,,,0.00,773,WeatherTracker,2013-05-23 16:56:00,
2013-05-23 10:01:00,89.7,37.5,29.66,SE,124,6.0,8.0,16,0.00,,,0.00,793,WeatherTracker,2013-05-23 17:01:00,
2013-05-23 10:06:00,89.0,37.0,29.66,East,88,0.0,9.0,16,0.00,,,0.00,700,WeatherTracker,2013-05-23 17:06:00,
2013-05-23 10:11:00,89.4,37.3,29.66,East,92,4.0,9.0,16,0.00,,,0.00,749,WeatherTracker,2013-05-23 17:11:00,
2013-05-23 10:16:00,89.5,37.4,29.66,SSE,159,2.0,9.0,16,0.00,,,0.00,777,WeatherTracker,2013-05-23 17:16:00,
2013-05-23 10:21:00,89.7,39.1,29.65,ESE,114,0.0,9.0,17,0.00,,,0.00,821,WeatherTracker,2013-05-23 17:21:00,
2013-05-23 10:26:00,90.0,37.7,29.66,SE,136,2.0,9.0,16,0.00,,,0.00,826,WeatherTracker,2013-05-23 17:26:00,
2013-05-23 10:31:00,90.5,38.1,29.65,ESE,117,2.0,7.0,16,0.00,,,0.00,835,WeatherTracker,2013-05-23 17:31:00,
2013-05-23 10:36:00,91.1,37.0,29.66,South,180,2.0,10.0,15,0.00,,,0.00,856,WeatherTracker,2013-05-23 17:36:00,
2013-05-23 10:41:00,90.8,36.7,29.66,East,94,1.0,10.0,15,0.00,,,0.00,854,WeatherTracker,2013-05-23 17:41:00,
2013-05-23 10:46:00,90.7,38.3,29.66,East,83,1.0,10.0,16,0.00,,,0.00,872,WeatherTracker,2013-05-23 17:46:00,
2013-05-23 10:51:00,91.1,37.0,29.65,SE,128,4.0,11.0,15,0.00,,,0.00,870,WeatherTracker,2013-05-23 17:51:00,
2013-05-23 10:56:00,91.2,37.1,29.65,East,92,2.0,11.0,15,0.00,,,0.00,884,WeatherTracker,2013-05-23 17:56:00,
2013-05-23 11:01:00,91.3,37.1,29.65,SSE,168,4.0,11.0,15,0.00,,,0.00,877,WeatherTracker,2013-05-23 18:01:00,
2013-05-23 11:07:00,91.4,37.2,29.65,South,178,0.0,8.0,15,0.00,,,0.00,886,WeatherTracker,2013-05-23 18:07:00,
2013-05-23 11:12:00,91.9,37.6,29.65,South,172,4.0,7.0,15,0.00,,,0.00,898,WeatherTracker,2013-05-23 18:12:00,
2013-05-23 11:17:00,92.4,38.0,29.65,South,191,2.0,9.0,15,0.00,,,0.00,896,WeatherTracker,2013-05-23 18:17:00,
2013-05-23 11:22:00,92.5,36.3,29.65,SSE,166,4.0,9.0,14,0.00,,,0.00,907,WeatherTracker,2013-05-23 18:22:00,
2013-05-23 11:27:00,92.6,38.2,29.65,SSE,158,0.0,9.0,15,0.00,,,0.00,916,WeatherTracker,2013-05-23 18:27:00,
2013-05-23 11:32:00,92.7,36.5,29.65,NE,54,5.0,10.0,14,0.00,,,0.00,921,WeatherTracker,2013-05-23 18:32:00,
2013-05-23 11:37:00,92.7,34.6,29.64,East,89,4.0,11.0,13,0.00,,,0.00,923,WeatherTracker,2013-05-23 18:37:00,
2013-05-23 11:42:00,92.4,38.0,29.64,SSW,204,0.0,11.0,15,0.00,,,0.00,932,WeatherTracker,2013-05-23 18:42:00,
2013-05-23 11:47:00,93.1,36.8,29.64,East,101,0.0,9.0,14,0.00,,,0.00,930,WeatherTracker,2013-05-23 18:47:00,
2013-05-23 11:52:00,93.2,35.0,29.64,East,93,5.0,9.0,13,0.00,,,0.00,932,WeatherTracker,2013-05-23 18:52:00,
2013-05-23 11:57:00,92.0,34.1,29.64,NE,52,3.0,13.0,13,0.00,,,0.00,935,WeatherTracker,2013-05-23 18:57:00,
2013-05-23 12:02:00,92.4,36.3,29.64,ESE,106,4.0,13.0,14,0.00,,,0.00,942,WeatherTracker,2013-05-23 19:02:00,
2013-05-23 12:07:00,93.0,36.7,29.63,ESE,111,0.0,12.0,14,0.00,,,0.00,944,WeatherTracker,2013-05-23 19:07:00,
2013-05-23 12:12:00,93.8,37.4,29.64,ESE,103,4.0,12.0,14,0.00,,,0.00,940,WeatherTracker,2013-05-23 19:12:00,
2013-05-23 12:17:00,93.9,37.4,29.63,ENE,71,3.0,11.0,14,0.00,,,0.00,946,WeatherTracker,2013-05-23 19:17:00,
2013-05-23 12:23:00,94.2,37.7,29.63,ESE,108,0.0,7.0,14,0.00,,,0.00,942,WeatherTracker,2013-05-23 19:23:00,
2013-05-23 12:28:00,94.8,36.3,29.63,SSW,205,2.0,8.0,13,0.00,,,0.00,951,WeatherTracker,2013-05-23 19:28:00,
2013-05-23 12:33:00,94.9,34.3,29.63,SSW,194,0.0,8.0,12,0.00,,,0.00,944,WeatherTracker,2013-05-23 19:33:00,
2013-05-23 12:38:00,95.3,34.6,29.62,SSE,163,2.0,9.0,12,0.00,,,0.00,946,WeatherTracker,2013-05-23 19:38:00,
2013-05-23 12:43:00,95.4,32.5,29.62,ESE,119,5.0,9.0,11,0.00,,,0.00,947,WeatherTracker,2013-05-23 19:43:00,
2013-05-23 12:48:00,95.6,32.7,29.62,WSW,243,4.0,9.0,11,0.00,,,0.00,942,WeatherTracker,2013-05-23 19:48:00,
2013-05-23 12:53:00,95.7,30.4,29.62,ESE,103,5.0,9.0,10,0.00,,,0.00,935,WeatherTracker,2013-05-23 19:53:00,
2013-05-23 12:58:00,95.9,30.6,29.62,East,84,1.0,10.0,10,0.00,,,0.00,942,WeatherTracker,2013-05-23 19:58:00,
2013-05-23 13:03:00,96.5,28.4,29.62,ESE,116,4.0,11.0,9,0.00,,,0.00,944,WeatherTracker,2013-05-23 20:03:00,
2013-05-23 13:08:00,96.8,28.6,29.62,SE,146,2.0,11.0,9,0.00,,,0.00,944,WeatherTracker,2013-05-23 20:08:00,
2013-05-23 13:13:00,96.6,28.5,29.62,SSW,200,0.0,14.0,9,0.00,,,0.00,926,WeatherTracker,2013-05-23 20:13:00,
2013-05-23 13:18:00,96.5,28.4,29.61,East,85,1.0,14.0,9,0.00,,,0.00,926,WeatherTracker,2013-05-23 20:18:00,
2013-05-23 13:23:00,96.6,28.5,29.62,SSE,163,1.0,14.0,9,0.00,,,0.00,928,WeatherTracker,2013-05-23 20:23:00,
2013-05-23 13:28:00,97.0,28.8,29.61,SSE,156,1.0,13.0,9,0.00,,,0.00,925,WeatherTracker,2013-05-23 20:28:00,
2013-05-23 13:33:00,97.4,29.1,29.62,SSW,206,4.0,9.0,9,0.00,,,0.00,926,WeatherTracker,2013-05-23 20:33:00,
2013-05-23 13:38:00,97.4,29.1,29.61,SW,216,0.0,9.0,9,0.00,,,0.00,911,WeatherTracker,2013-05-23 20:38:00,
2013-05-23 13:43:00,97.4,29.1,29.61,SSW,201,4.0,9.0,9,0.00,,,0.00,907,WeatherTracker,2013-05-23 20:43:00,
2013-05-23 13:48:00,97.5,29.2,29.61,ESE,112,0.0,7.0,9,0.00,,,0.00,904,WeatherTracker,2013-05-23 20:48:00,
2013-05-23 13:53:00,97.8,29.4,29.61,WSW,238,3.0,7.0,9,0.00,,,0.00,902,WeatherTracker,2013-05-23 20:53:00,
2013-05-23 13:58:00,98.1,29.6,29.61,SSW,196,1.0,8.0,9,0.00,,,0.00,891,WeatherTracker,2013-05-23 20:58:00,
2013-05-23 14:03:00,98.2,29.7,29.60,SE,126,0.0,8.0,9,0.00,,,0.00,889,WeatherTracker,2013-05-23 21:03:00,
2013-05-23 14:08:00,97.8,29.4,29.60,East,94,5.0,10.0,9,0.00,,,0.00,872,WeatherTracker,2013-05-23 21:08:00,
2013-05-23 14:13:00,97.8,29.4,29.60,ENE,64,4.0,10.0,9,0.00,,,0.00,865,WeatherTracker,2013-05-23 21:13:00,
2013-05-23 14:18:00,97.5,29.2,29.60,SW,223,3.0,8.0,9,0.00,,,0.00,863,WeatherTracker,2013-05-23 21:18:00,
2013-05-23 14:23:00,97.5,29.2,29.59,SW,235,5.0,9.0,9,0.00,,,0.00,853,WeatherTracker,2013-05-23 21:23:00,
2013-05-23 14:28:00,97.8,26.5,29.59,WSW,238,3.0,11.0,8,0.00,,,0.00,844,WeatherTracker,2013-05-23 21:28:00,
2013-05-23 14:34:00,97.5,29.2,29.59,WSW,238,10.0,11.0,9,0.00,,,0.00,833,WeatherTracker,2013-05-23 21:34:00,
2013-05-23 14:39:00,97.7,29.3,29.59,South,186,4.0,10.0,9,0.00,,,0.00,821,WeatherTracker,2013-05-23 21:39:00,
2013-05-23 14:44:00,97.7,29.3,29.59,WSW,254,0.0,10.0,9,0.00,,,0.00,814,WeatherTracker,2013-05-23 21:44:00,
2013-05-23 14:49:00,98.2,29.7,29.59,WSW,240,4.0,8.0,9,0.00,,,0.00,807,WeatherTracker,2013-05-23 21:49:00,
2013-05-23 14:54:00,97.6,29.2,29.58,WSW,250,2.0,11.0,9,0.00,,,0.00,793,WeatherTracker,2013-05-23 21:54:00,
2013-05-23 14:59:00,97.6,29.2,29.58,WSW,251,10.0,12.0,9,0.00,,,0.00,782,WeatherTracker,2013-05-23 21:59:00,
2013-05-23 15:04:00,97.7,29.3,29.58,SW,224,4.0,14.0,9,0.00,,,0.00,772,WeatherTracker,2013-05-23 22:04:00,
2013-05-23 15:09:00,98.2,32.3,29.58,SW,214,3.0,14.0,10,0.00,,,0.00,758,WeatherTracker,2013-05-23 22:09:00,
2013-05-23 15:14:00,98.4,29.8,29.58,WSW,248,0.0,7.0,9,0.00,,,0.00,749,WeatherTracker,2013-05-23 22:14:00,
2013-05-23 15:19:00,98.6,30.0,29.58,SE,144,6.0,6.0,9,0.00,,,0.00,737,WeatherTracker,2013-05-23 22:19:00,
2013-05-23 15:24:00,98.7,27.2,29.58,SW,225,3.0,7.0,8,0.00,,,0.00,722,WeatherTracker,2013-05-23 22:24:00,
2013-05-23 15:29:00,98.6,27.1,29.57,SSW,205,1.0,10.0,8,0.00,,,0.00,712,WeatherTracker,2013-05-23 22:29:00,
2013-05-23 15:34:00,98.4,27.0,29.57,WSW,238,5.0,12.0,8,0.00,,,0.00,698,WeatherTracker,2013-05-23 22:34:00,
2013-05-23 15:39:00,98.0,29.5,29.57,WSW,240,4.0,12.0,9,0.00,,,0.00,687,WeatherTracker,2013-05-23 22:39:00,
2013-05-23 15:44:00,98.3,29.8,29.57,South,190,3.0,10.0,9,0.00,,,0.00,673,WeatherTracker,2013-05-23 22:44:00,
2013-05-23 15:49:00,98.8,30.1,29.57,WSW,240,2.0,10.0,9,0.00,,,0.00,661,WeatherTracker,2013-05-23 22:49:00,
2013-05-23 15:54:00,98.9,27.3,29.57,SW,229,3.0,5.0,8,0.00,,,0.00,645,WeatherTracker,2013-05-23 22:54:00,
2013-05-23 15:59:00,99.1,27.5,29.56,SW,234,7.0,10.0,8,0.00,,,0.00,631,WeatherTracker,2013-05-23 22:59:00,
2013-05-23 16:04:00,98.8,27.3,29.56,WSW,242,3.0,12.0,8,0.00,,,0.00,621,WeatherTracker,2013-05-23 23:04:00,
2013-05-23 16:09:00,98.4,29.8,29.56,West,259,4.0,12.0,9,0.00,,,0.00,605,WeatherTracker,2013-05-23 23:09:00,
2013-05-23 16:15:00,98.7,30.1,29.56,SW,224,4.0,11.0,9,0.00,,,0.00,589,WeatherTracker,2013-05-23 23:15:00,
2013-05-23 16:20:00,99.0,27.4,29.56,SW,219,0.0,9.0,8,0.00,,,0.00,575,WeatherTracker,2013-05-23 23:20:00,
2013-05-23 16:25:00,99.1,27.5,29.56,South,190,3.0,9.0,8,0.00,,,0.00,559,WeatherTracker,2013-05-23 23:25:00,
2013-05-23 16:30:00,98.9,27.3,29.56,South,184,3.0,12.0,8,0.00,,,0.00,543,WeatherTracker,2013-05-23 23:30:00,
2013-05-23 16:35:00,98.8,30.1,29.56,SE,126,0.0,12.0,9,0.00,,,0.00,526,WeatherTracker,2013-05-23 23:35:00,
2013-05-23 16:40:00,99.1,27.5,29.55,South,170,5.0,7.0,8,0.00,,,0.00,512,WeatherTracker,2013-05-23 23:40:00,
2013-05-23 16:45:00,99.2,24.3,29.55,SSE,167,2.0,6.0,7,0.00,,,0.00,496,WeatherTracker,2013-05-23 23:45:00,
2013-05-23 16:50:00,99.2,24.3,29.55,SSW,193,0.0,5.0,7,0.00,,,0.00,480,WeatherTracker,2013-05-23 23:50:00,
2013-05-23 16:55:00,99.2,27.5,29.55,SW,234,9.0,9.0,8,0.00,,,0.00,464,WeatherTracker,2013-05-23 23:55:00,
2013-05-23 17:00:00,99.0,24.2,29.55,South,169,0.0,11.0,7,0.00,,,0.00,448,WeatherTracker,2013-05-24 00:00:00,
2013-05-23 17:06:00,99.1,24.3,29.55,SW,232,4.0,9.0,7,0.00,,,0.00,432,WeatherTracker,2013-05-24 00:06:00,
2013-05-23 17:11:00,98.7,27.2,29.55,WSW,256,6.0,10.0,8,0.00,,,0.00,415,WeatherTracker,2013-05-24 00:11:00,
2013-05-23 17:16:00,98.3,26.9,29.55,SW,234,6.0,10.0,8,0.00,,,0.00,396,WeatherTracker,2013-05-24 00:16:00,
2013-05-23 17:21:00,98.2,26.8,29.55,SSW,209,3.0,11.0,8,0.00,,,0.00,381,WeatherTracker,2013-05-24 00:21:00,
2013-05-23 17:26:00,98.1,26.7,29.55,SW,228,2.0,11.0,8,0.00,,,0.00,364,WeatherTracker,2013-05-24 00:26:00,
2013-05-23 17:31:00,97.9,29.5,29.55,WSW,241,0.0,11.0,9,0.00,,,0.00,348,WeatherTracker,2013-05-24 00:31:00,
2013-05-23 17:36:00,97.8,29.4,29.55,SSW,207,5.0,11.0,9,0.00,,,0.00,330,WeatherTracker,2013-05-24 00:36:00,
2013-05-23 17:41:00,97.3,29.0,29.55,WSW,239,7.0,9.0,9,0.00,,,0.00,315,WeatherTracker,2013-05-24 00:41:00,
2013-05-23 17:46:00,97.3,26.2,29.55,SW,227,3.0,10.0,8,0.00,,,0.00,294,WeatherTracker,2013-05-24 00:46:00,
2013-05-23 17:51:00,97.2,26.1,29.55,WSW,248,1.0,10.0,8,0.00,,,0.00,278,WeatherTracker,2013-05-24 00:51:00,
2013-05-23 17:56:00,97.3,29.0,29.55,WSW,240,3.0,8.0,9,0.00,,,0.00,258,WeatherTracker,2013-05-24 00:56:00,
2013-05-23 18:01:00,97.1,28.9,29.55,West,265,5.0,8.0,9,0.00,,,0.00,243,WeatherTracker,2013-05-24 01:01:00,
2013-05-23 18:06:00,96.8,28.6,29.55,SW,222,1.0,9.0,9,0.00,,,0.00,225,WeatherTracker,2013-05-24 01:06:00,
2013-05-23 18:11:00,97.0,28.8,29.55,WSW,244,3.0,9.0,9,0.00,,,0.00,209,WeatherTracker,2013-05-24 01:11:00,
2013-05-23 18:16:00,97.1,28.9,29.55,SW,232,0.0,7.0,9,0.00,,,0.00,190,WeatherTracker,2013-05-24 01:16:00,
2013-05-23 18:21:00,97.3,29.0,29.55,SW,232,0.0,7.0,9,0.00,,,0.00,171,WeatherTracker,2013-05-24 01:21:00,
2013-05-23 18:26:00,97.5,26.3,29.55,SW,233,0.0,5.0,8,0.00,,,0.00,151,WeatherTracker,2013-05-24 01:26:00,
2013-05-23 18:31:00,97.4,29.1,29.55,SW,233,2.0,5.0,9,0.00,,,0.00,135,WeatherTracker,2013-05-24 01:31:00,
2013-05-23 18:36:00,97.1,22.8,29.55,West,260,5.0,5.0,7,0.00,,,0.00,67,WeatherTracker,2013-05-24 01:36:00,
2013-05-23 18:41:00,96.7,22.5,29.55,WSW,257,1.0,8.0,7,0.00,,,0.00,74,WeatherTracker,2013-05-24 01:41:00,
2013-05-23 18:47:00,96.4,25.5,29.56,SSW,212,4.0,7.0,8,0.00,,,0.00,83,WeatherTracker,2013-05-24 01:47:00,
2013-05-23 18:52:00,96.1,28.1,29.56,SW,227,0.0,7.0,9,0.00,,,0.00,69,WeatherTracker,2013-05-24 01:52:00,
2013-05-23 18:57:00,95.8,27.9,29.56,SE,145,0.0,7.0,9,0.00,,,0.00,54,WeatherTracker,2013-05-24 01:57:00,
2013-05-23 19:02:00,95.4,27.6,29.56,South,179,0.0,4.0,9,0.00,,,0.00,25,WeatherTracker,2013-05-24 02:02:00,
2013-05-23 19:07:00,95.0,27.3,29.56,SW,225,0.0,4.0,9,0.00,,,0.00,30,WeatherTracker,2013-05-24 02:07:00,
2013-05-23 19:12:00,94.5,26.9,29.56,SSW,207,0.0,8.0,9,0.00,,,0.00,19,WeatherTracker,2013-05-24 02:12:00,
2013-05-23 19:17:00,94.0,29.1,29.57,SSW,201,0.0,8.0,10,0.00,,,0.00,11,WeatherTracker,2013-05-24 02:17:00,
2013-05-23 19:22:00,93.5,28.7,29.57,ESE,103,1.0,5.0,10,0.00,,,0.00,7,WeatherTracker,2013-05-24 02:22:00,
2013-05-23 19:27:00,93.0,28.4,29.57,SSW,198,0.0,5.0,10,0.00,,,0.00,0,WeatherTracker,2013-05-24 02:27:00,
2013-05-23 19:32:00,92.6,30.4,29.57,SW,219,1.0,5.0,11,0.00,,,0.00,0,WeatherTracker,2013-05-24 02:32:00,
2013-05-23 19:37:00,92.3,30.2,29.57,SW,227,1.0,5.0,11,0.00,,,0.00,0,WeatherTracker,2013-05-24 02:37:00,
2013-05-23 19:42:00,92.0,29.9,29.58,SSW,209,2.0,5.0,11,0.00,,,0.00,0,WeatherTracker,2013-05-24 02:42:00,
2013-05-23 19:47:00,91.7,31.9,29.58,SSW,199,2.0,5.0,12,0.00,,,0.00,0,WeatherTracker,2013-05-24 02:47:00,
2013-05-23 19:52:00,91.4,31.6,29.58,SSW,192,0.0,5.0,12,0.00,,,0.00,0,WeatherTracker,2013-05-24 02:52:00,
2013-05-23 19:57:00,91.1,31.4,29.58,SSW,196,0.0,7.0,12,0.00,,,0.00,0,WeatherTracker,2013-05-24 02:57:00,
2013-05-23 20:02:00,90.9,33.2,29.59,WSW,248,4.0,7.0,13,0.00,,,0.00,0,WeatherTracker,2013-05-24 03:02:00,
2013-05-23 20:07:00,90.7,31.1,29.59,SSW,213,1.0,9.0,12,0.00,,,0.00,0,WeatherTracker,2013-05-24 03:07:00,
2013-05-23 20:12:00,90.5,32.9,29.59,SSW,196,1.0,9.0,13,0.00,,,0.00,0,WeatherTracker,2013-05-24 03:12:00,
2013-05-23 20:17:00,90.3,30.8,29.59,SW,230,1.0,8.0,12,0.00,,,0.00,0,WeatherTracker,2013-05-24 03:17:00,
2013-05-23 20:22:00,90.2,32.7,29.59,WSW,243,0.0,7.0,13,0.00,,,0.00,0,WeatherTracker,2013-05-24 03:22:00,
2013-05-23 20:27:00,90.1,32.6,29.60,SW,235,2.0,8.0,13,0.00,,,0.00,0,WeatherTracker,2013-05-24 03:27:00,
2013-05-23 20:32:00,89.9,32.5,29.60,SW,232,2.0,8.0,13,0.00,,,0.00,0,WeatherTracker,2013-05-24 03:32:00,
2013-05-23 20:38:00,89.5,32.1,29.60,SW,230,1.0,6.0,13,0.00,,,0.00,0,WeatherTracker,2013-05-24 03:38:00,
2013-05-23 20:43:00,89.2,31.9,29.61,SW,217,3.0,6.0,13,0.00,,,0.00,0,WeatherTracker,2013-05-24 03:43:00,
2013-05-23 20:48:00,89.0,31.8,29.61,South,190,1.0,8.0,13,0.00,,,0.00,0,WeatherTracker,2013-05-24 03:48:00,
2013-05-23 20:53:00,88.8,31.6,29.61,SW,231,2.0,8.0,13,0.00,,,0.00,0,WeatherTracker,2013-05-24 03:53:00,
2013-05-23 20:58:00,88.7,29.5,29.61,SW,215,6.0,8.0,12,0.00,,,0.00,0,WeatherTracker,2013-05-24 03:58:00,
2013-05-23 21:01:00,88.6,29.5,29.62,SW,236,7.0,8.0,12,0.00,,,0.00,0,WeatherTracker,2013-05-24 04:01:00,
2013-05-23 21:02:00,88.6,29.5,29.62,WSW,239,2.0,8.0,12,0.00,,,0.00,0,WeatherTracker,2013-05-24 04:02:00,
2013-05-23 21:07:00,88.3,29.2,29.62,SSW,194,1.0,7.0,12,0.00,,,0.00,0,WeatherTracker,2013-05-24 04:07:00,
2013-05-23 21:12:00,88.0,29.0,29.62,SW,215,0.0,5.0,12,0.00,,,0.00,0,WeatherTracker,2013-05-24 04:12:00,
2013-05-23 21:17:00,87.6,26.6,29.62,SW,236,0.0,4.0,11,0.00,,,0.00,0,WeatherTracker,2013-05-24 04:17:00,
2013-05-23 21:22:00,87.4,28.5,29.63,SW,236,0.0,4.0,12,0.00,,,0.00,0,WeatherTracker,2013-05-24 04:22:00,
2013-05-23 21:27:00,87.0,26.1,29.63,SSW,205,0.0,4.0,11,0.00,,,0.00,0,WeatherTracker,2013-05-24 04:27:00,
2013-05-23 21:32:00,86.6,27.9,29.63,SSW,203,0.0,4.0,12,0.00,,,0.00,0,WeatherTracker,2013-05-24 04:32:00,
2013-05-23 21:37:00,86.2,27.6,29.64,SSW,203,0.0,1.0,12,0.00,,,0.00,0,WeatherTracker,2013-05-24 04:37:00,
2013-05-23 21:43:00,85.7,27.2,29.64,SSW,203,0.0,1.0,12,0.00,,,0.00,0,WeatherTracker,2013-05-24 04:43:00,
2013-05-23 21:48:00,85.1,26.8,29.64,SSW,202,0.0,3.0,12,0.00,,,0.00,0,WeatherTracker,2013-05-24 04:48:00,
2013-05-23 21:53:00,84.5,28.2,29.64,SSE,162,0.0,3.0,13,0.00,,,0.00,0,WeatherTracker,2013-05-24 04:53:00,
2013-05-23 21:58:00,84.1,26.0,29.64,SSE,162,0.0,2.0,12,0.00,,,0.00,0,WeatherTracker,2013-05-24 04:58:00,
2013-05-23 22:03:00,83.6,27.5,29.65,SSE,162,0.0,1.0,13,0.00,,,0.00,0,WeatherTracker,2013-05-24 05:03:00,
2013-05-23 22:08:00,83.2,25.3,29.65,SSE,162,0.0,1.0,12,0.00,,,0.00,0,WeatherTracker,2013-05-24 05:08:00,
2013-05-23 22:13:00,82.7,24.9,29.65,SSE,162,0.0,0.0,12,0.00,,,0.00,0,WeatherTracker,2013-05-24 05:13:00,
2013-05-23 22:18:00,82.3,24.6,29.65,SSE,162,0.0,0.0,12,0.00,,,0.00,0,WeatherTracker,2013-05-24 05:18:00,
2013-05-23 22:23:00,81.9,24.3,29.65,SSE,162,0.0,1.0,12,0.00,,,0.00,0,WeatherTracker,2013-05-24 05:23:00,
2013-05-23 22:28:00,81.5,25.9,29.65,SSE,162,0.0,1.0,13,0.00,,,0.00,0,WeatherTracker,2013-05-24 05:28:00,
2013-05-23 22:33:00,81.1,25.6,29.65,SSE,162,0.0,1.0,13,0.00,,,0.00,0,WeatherTracker,2013-05-24 05:33:00,
2013-05-23 22:38:00,80.6,25.2,29.65,SSE,162,0.0,1.0,13,0.00,,,0.00,0,WeatherTracker,2013-05-24 05:38:00,
2013-05-23 22:43:00,80.1,26.6,29.65,SSE,162,0.0,0.0,14,0.00,,,0.00,0,WeatherTracker,2013-05-24 05:43:00,
2013-05-23 22:48:00,79.6,26.2,29.65,SSE,162,0.0,0.0,14,0.00,,,0.00,0,WeatherTracker,2013-05-24 05:48:00,
2013-05-23 22:53:00,79.2,25.9,29.65,SSE,162,0.0,0.0,14,0.00,,,0.00,0,WeatherTracker,2013-05-24 05:53:00,
2013-05-23 22:58:00,78.9,25.7,29.65,SSE,162,0.0,0.0,14,0.00,,,0.00,0,WeatherTracker,2013-05-24 05:58:00,
2013-05-23 23:03:00,78.5,27.0,29.65,SSE,161,0.0,0.0,15,0.00,,,0.00,0,WeatherTracker,2013-05-24 06:03:00,
2013-05-23 23:08:00,78.4,25.3,29.65,SSE,162,0.0,1.0,14,0.00,,,0.00,0,WeatherTracker,2013-05-24 06:08:00,
2013-05-23 23:13:00,78.4,26.9,29.65,SSE,162,0.0,1.0,15,0.00,,,0.00,0,WeatherTracker,2013-05-24 06:13:00,
2013-05-23 23:18:00,78.3,26.8,29.65,SSE,162,0.0,0.0,15,0.00,,,0.00,0,WeatherTracker,2013-05-24 06:18:00,
2013-05-23 23:23:00,78.2,26.8,29.65,SSE,161,0.0,0.0,15,0.00,,,0.00,0,WeatherTracker,2013-05-24 06:23:00,
2013-05-23 23:28:00,77.9,26.5,29.65,SSE,162,0.0,0.0,15,0.00,,,0.00,0,WeatherTracker,2013-05-24 06:28:00,
2013-05-23 23:33:00,77.7,26.4,29.65,SSE,161,0.0,0.0,15,0.00,,,0.00,0,WeatherTracker,2013-05-24 06:33:00,
2013-05-23 23:38:00,77.5,27.8,29.65,SSE,162,0.0,1.0,16,0.00,,,0.00,0,WeatherTracker,2013-05-24 06:38:00,
2013-05-23 23:43:00,77.1,28.9,29.65,SSE,162,0.0,1.0,17,0.00,,,0.00,0,WeatherTracker,2013-05-24 06:43:00,
2013-05-23 23:48:00,76.6,27.0,29.65,SSE,161,0.0,0.0,16,0.00,,,0.00,0,WeatherTracker,2013-05-24 06:48:00,
2013-05-23 23:54:00,76.4,28.4,29.66,SSE,162,0.0,0.0,17,0.00,,,0.00,0,WeatherTracker,2013-05-24 06:54:00,
2013-05-23 23:59:00,76.4,28.4,29.66,SSE,162,0.0,0.0,17,0.00,,,0.00,0,WeatherTracker,2013-05-24 06:59:00,